Home   Weather   Australia   Canberra   Past weeks
Flag for Australia

Past Weather in Canberra, Australian Capital Territory, Australia — Yesterday and Last 2 Weeks

Currently: 63 °F. Sunny. (Weather station: Canberra Airport, Australia). See more current weather

Past Weather in Canberra — Graph

°F

Canberra Temperature Yesterday

Maximum temperature yesterday: 59 °F (at 1:16 pm)
Minimum temperature yesterday: 41 °F (at 12:00 am)
Average temperature yesterday: 50 °F

High & Low Weather Summary for the Past Weeks

  Temperature Humidity Pressure
High 75 °F (Apr 27, 2:00 pm) 100% (Apr 24, 11:00 pm) 30.51 "Hg (Apr 24, 11:00 pm)
Low 34 °F (May 6, 4:50 am) 29% (Apr 27, 2:00 pm) 29.89 "Hg (May 7, 5:30 am)
Average 53 °F 77% 30.24 "Hg
* Reported Apr 24 1:00 pm — May 9 1:00 pm, Canberra. Weather by CustomWeather, © 2026

Note: Actual official high and low records may vary slightly from our data, if they occured in-between our weather recording intervals... More about our weather records

Canberra Weather History for the Previous 24 Hours

Scroll right to see more
  Conditions Comfort    
Time   Temp Weather Wind   Humidity Barometer Visibility
1:00 pm
Sat, May 9
61 °F Sunny. 6 mph 52% 30.24 "Hg N/A
12:30 pm 59 °F Sunny. 5 mph 55% 30.27 "Hg N/A
12:00 pm 59 °F Sunny. 5 mph 55% 30.27 "Hg N/A
11:30 am 57 °F Sunny. 6 mph 59% 30.30 "Hg N/A
11:00 am 55 °F Sunny. 5 mph 67% 30.30 "Hg N/A
10:30 am 52 °F Sunny. 5 mph 82% 30.30 "Hg N/A
10:01 am 48 °F Passing clouds. 5 mph 94% 30.30 "Hg N/A
9:30 am 45 °F Low clouds. 3 mph 100% 30.30 "Hg N/A
9:11 am 45 °F Low clouds. No wind 100% 30.30 "Hg 4 mi
9:00 am 45 °F Fog. No wind 100% 30.30 "Hg 1 mi
8:30 am 43 °F Fog. 5 mph 100% 30.30 "Hg 0 mi
8:13 am 43 °F Fog. 1 mph 100% 30.30 "Hg 1 mi
8:00 am 43 °F Fog. No wind 100% 30.30 "Hg 0 mi
7:41 am 41 °F Fog. No wind 100% 30.27 "Hg 0 mi
7:20 am 41 °F Fog. No wind 100% 30.27 "Hg 1 mi
6:40 am 41 °F Fog. No wind 100% 30.27 "Hg 0 mi
6:00 am 41 °F Fog. No wind 100% 30.24 "Hg 0 mi
5:30 am 39 °F Fog. No wind 100% 30.24 "Hg 0 mi
5:01 am 39 °F Fog. No wind 100% 30.24 "Hg 0 mi
4:53 am 39 °F Fog. No wind 100% 30.21 "Hg 1 mi
4:32 am 39 °F Passing clouds. 5 mph 100% 30.21 "Hg 4 mi
4:00 am 41 °F Clear. 1 mph 100% 30.21 "Hg N/A
3:30 am 41 °F Clear. 5 mph 100% 30.21 "Hg N/A
3:00 am 43 °F Passing clouds. 5 mph 100% 30.21 "Hg N/A
2:30 am 46 °F Overcast. 1 mph 93% 30.21 "Hg N/A
2:00 am 48 °F Overcast. 1 mph 87% 30.21 "Hg N/A
1:30 am 50 °F Overcast. 5 mph 88% 30.21 "Hg N/A
1:00 am 50 °F Overcast. 7 mph 82% 30.21 "Hg N/A
12:30 am 50 °F Overcast. 3 mph 82% 30.21 "Hg N/A
12:00 am 50 °F Overcast. 6 mph 82% 30.18 "Hg N/A
11:30 pm
Fri, May 8
50 °F Overcast. 7 mph 82% 30.21 "Hg N/A
11:00 pm 50 °F Overcast. 7 mph 76% 30.18 "Hg N/A
10:30 pm 50 °F Overcast. 9 mph 76% 30.18 "Hg N/A
10:00 pm 52 °F Overcast. 6 mph 72% 30.18 "Hg N/A
9:30 pm 52 °F Overcast. 7 mph 72% 30.18 "Hg N/A
9:00 pm 52 °F Overcast. 8 mph 72% 30.18 "Hg N/A
8:30 pm 52 °F Overcast. 6 mph 72% 30.18 "Hg N/A
8:00 pm 52 °F Overcast. 7 mph 72% 30.18 "Hg N/A
7:30 pm 52 °F Overcast. 7 mph 72% 30.18 "Hg N/A
7:00 pm 50 °F Passing clouds. 8 mph 76% 30.15 "Hg N/A
6:30 pm 48 °F Passing clouds. 8 mph 76% 30.15 "Hg N/A
6:00 pm 50 °F Passing clouds. 12 mph 76% 30.12 "Hg N/A
5:30 pm 52 °F Overcast. 12 mph 72% 30.12 "Hg N/A
5:00 pm 54 °F Scattered clouds. 13 mph 63% 30.09 "Hg N/A
4:30 pm 55 °F Sunny. 16 mph 59% 30.09 "Hg N/A
4:00 pm 57 °F Passing clouds. 17 mph 55% 30.07 "Hg N/A
3:30 pm 57 °F Sunny. 17 mph 55% 30.07 "Hg N/A
3:00 pm 57 °F Sunny. 18 mph 55% 30.07 "Hg N/A
2:30 pm 59 °F Sunny. 20 mph 51% 30.04 "Hg N/A
2:00 pm 59 °F Sunny. 20 mph 51% 30.04 "Hg N/A
Weather by CustomWeather, © 2026

See weather overview